createdAt,value
2018-11-25T00:00:59.868Z,75.43
2018-11-25T00:06:25.772Z,75.73
2018-11-25T00:08:56.038Z,75.73
2018-11-25T00:11:26.320Z,75.55
2018-11-25T00:16:58.218Z,75.89
2018-11-25T00:19:28.464Z,75.86
2018-11-25T00:21:58.685Z,75.92
2018-11-25T00:27:24.155Z,75.67
2018-11-25T00:35:32.736Z,75.95
2018-11-25T00:40:58.537Z,75.95
2018-11-25T00:46:24.200Z,76.35
2018-11-25T00:51:36.302Z,76.13
2018-11-25T00:57:02.392Z,76.55
2018-11-25T00:59:32.643Z,76.70
2018-11-25T01:02:21.782Z,77.31
2018-11-25T01:07:34.161Z,77.92
2018-11-25T01:10:04.551Z,76.83
2018-11-25T01:15:30.373Z,77.10
2018-11-25T01:20:56.273Z,76.76
2018-11-25T01:26:09.274Z,76.93
2018-11-25T01:28:39.510Z,77.02
2018-11-25T01:31:09.719Z,77.58
2018-11-25T01:39:03.684Z,77.64
2018-11-25T01:44:29.510Z,77.43
2018-11-25T01:49:54.388Z,77.41
2018-11-25T01:55:20.640Z,77.81
2018-11-25T02:00:51.819Z,78.05
2018-11-25T02:06:09.864Z,77.54
2018-11-25T02:11:35.664Z,77.73
2018-11-25T02:17:01.886Z,77.70
2018-11-25T02:22:27.503Z,79.10
2018-11-25T02:27:52.791Z,78.31
2018-11-25T02:33:18.832Z,78.30
2018-11-25T02:38:44.279Z,78.56
2018-11-25T02:44:10.164Z,78.71
2018-11-25T02:46:40.402Z,78.77
2018-11-25T02:49:10.618Z,78.63
2018-11-25T02:54:36.463Z,78.40
2018-11-25T03:00:08.322Z,78.55
2018-11-25T03:05:39.569Z,79.71
2018-11-25T03:11:05.014Z,78.97
2018-11-25T03:13:35.254Z,78.86
2018-11-25T03:16:05.492Z,78.79
2018-11-25T03:21:28.232Z,78.97
2018-11-25T03:23:58.477Z,78.86
2018-11-25T03:29:11.160Z,78.80
2018-11-25T03:31:41.411Z,78.67
2018-11-25T03:34:23.575Z,79.09
2018-11-25T03:39:36.156Z,78.17
2018-11-25T03:45:01.807Z,78.32
2018-11-25T03:50:26.993Z,78.67
2018-11-25T03:52:57.245Z,78.83
2018-11-25T03:55:27.452Z,78.57
2018-11-25T04:00:52.979Z,78.38
2018-11-25T04:06:18.259Z,78.12
2018-11-25T04:09:07.173Z,78.22
2018-11-25T04:11:37.633Z,78.26
2018-11-25T04:16:56.881Z,78.10
2018-11-25T04:22:22.025Z,77.84
2018-11-25T04:27:53.368Z,77.81
2018-11-25T04:33:18.460Z,78.16
2018-11-25T04:38:49.708Z,77.62
2018-11-25T04:44:14.642Z,77.61
2018-11-25T04:49:40.420Z,77.33
2018-11-25T04:55:06.170Z,77.06
2018-11-25T05:00:31.971Z,77.23
2018-11-25T05:03:02.218Z,78.90
2018-11-25T05:05:32.476Z,78.47
2018-11-25T05:10:58.016Z,77.92
2018-11-25T05:16:22.901Z,77.86
2018-11-25T05:21:42.398Z,77.22
2018-11-25T05:27:14.383Z,77.14
2018-11-25T05:32:39.464Z,76.97
2018-11-25T05:35:11.562Z,77.13
2018-11-25T05:37:41.774Z,77.10
2018-11-25T05:40:12.934Z,77.02
2018-11-25T05:42:43.223Z,76.56
2018-11-25T05:48:12.563Z,76.20
2018-11-25T05:50:42.837Z,75.98
2018-11-25T05:53:13.043Z,76.04
2018-11-25T05:58:38.539Z,75.97
2018-11-25T06:01:08.808Z,76.25
2018-11-25T06:03:39.017Z,76.08
2018-11-25T06:09:04.654Z,76.14
2018-11-25T06:11:34.902Z,76.29
2018-11-25T06:14:23.764Z,76.59
2018-11-25T06:19:49.812Z,76.08
2018-11-25T06:25:09.216Z,76.20
2018-11-25T06:27:39.478Z,76.33
2018-11-25T06:30:13.864Z,76.18
2018-11-25T06:35:39.667Z,76.16
2018-11-25T06:38:09.907Z,76.28
2018-11-25T06:40:40.150Z,76.31
2018-11-25T06:43:10.396Z,76.37
2018-11-25T06:45:40.622Z,76.27
2018-11-25T06:48:10.883Z,76.05
2018-11-25T06:50:41.134Z,76.08
2018-11-25T06:53:11.402Z,76.30
2018-11-25T06:55:41.668Z,76.28
2018-11-25T07:01:07.929Z,76.86
2018-11-25T07:06:51.879Z,76.45
2018-11-25T07:12:04.356Z,76.31
2018-11-25T07:14:34.609Z,76.48
2018-11-25T07:17:04.844Z,76.01
2018-11-25T07:19:35.090Z,75.64
2018-11-25T07:22:05.301Z,76.25
2018-11-25T07:27:24.523Z,75.97
2018-11-25T07:29:54.773Z,75.64
2018-11-25T07:32:25.028Z,75.42
2018-11-25T07:37:50.858Z,74.38
2018-11-25T07:43:03.405Z,74.14
2018-11-25T07:45:33.647Z,74.43
2018-11-25T07:50:45.852Z,74.61
2018-11-25T07:55:57.749Z,74.65
2018-11-25T07:58:34.551Z,74.70
2018-11-25T08:01:04.779Z,74.76
2018-11-25T08:03:35.024Z,74.72
2018-11-25T08:06:05.221Z,74.72
2018-11-25T08:08:35.509Z,74.69
2018-11-25T08:11:05.855Z,74.65
2018-11-25T08:13:36.107Z,74.57
2018-11-25T08:16:06.490Z,74.45
2018-11-25T08:21:19.016Z,74.57
2018-11-25T08:26:44.664Z,74.56
2018-11-25T08:32:16.819Z,74.60
2018-11-25T08:34:47.231Z,74.55
2018-11-25T08:37:17.513Z,74.47
2018-11-25T08:42:42.509Z,74.90
2018-11-25T08:45:13.583Z,75.45
2018-11-25T08:47:43.878Z,75.09
2018-11-25T08:50:33.114Z,75.39
2018-11-25T08:53:03.388Z,74.89
2018-11-25T08:55:45.534Z,74.60
2018-11-25T08:58:34.400Z,74.49
2018-11-25T09:01:04.719Z,74.54
2018-11-25T09:03:35.396Z,74.52
2018-11-25T09:06:05.312Z,74.32
2018-11-25T09:08:36.182Z,73.83
2018-11-25T09:11:06.917Z,73.95
2018-11-25T09:13:37.142Z,73.89
2018-11-25T09:16:07.566Z,73.63
2018-11-25T09:18:37.800Z,73.20
2018-11-25T09:24:03.737Z,72.62
2018-11-25T09:26:34.085Z,72.42
2018-11-25T09:29:04.320Z,72.36
2018-11-25T09:34:22.840Z,72.18
2018-11-25T09:39:48.547Z,71.93
2018-11-25T09:42:18.899Z,72.04
2018-11-25T09:44:49.104Z,72.11
2018-11-25T09:50:24.642Z,72.25
2018-11-25T09:55:49.808Z,72.31
2018-11-25T10:01:15.249Z,72.16
2018-11-25T10:03:45.541Z,72.20
2018-11-25T10:06:15.773Z,72.06
2018-11-25T10:11:40.899Z,72.34
2018-11-25T10:17:06.967Z,72.26
2018-11-25T10:19:37.274Z,72.11
2018-11-25T10:22:07.434Z,71.91
2018-11-25T10:24:56.631Z,72.18
2018-11-25T10:27:26.868Z,72.50
2018-11-25T10:29:57.113Z,72.68
2018-11-25T10:32:27.324Z,74.16
2018-11-25T10:35:16.549Z,73.36
2018-11-25T10:37:46.772Z,72.78
2018-11-25T10:40:18.515Z,72.72
2018-11-25T10:42:48.728Z,72.84
2018-11-25T10:45:38.516Z,72.45
2018-11-25T10:48:08.743Z,71.96
2018-11-25T10:50:38.993Z,72.12
2018-11-25T10:53:09.224Z,72.54
2018-11-25T10:55:39.456Z,72.03
2018-11-25T10:58:10.470Z,72.17
2018-11-25T11:00:59.364Z,72.24
2018-11-25T11:03:48.248Z,71.81
2018-11-25T11:06:37.137Z,72.15
2018-11-25T11:09:08.472Z,71.90
2018-11-25T11:11:38.714Z,71.43
2018-11-25T11:14:08.927Z,71.28
2018-11-25T11:16:39.179Z,70.96
2018-11-25T11:19:09.405Z,71.13
2018-11-25T11:21:59.056Z,70.94
2018-11-25T11:24:29.283Z,71.29
2018-11-25T11:29:41.430Z,71.35
2018-11-25T11:34:53.152Z,71.35
2018-11-25T11:37:29.229Z,71.54
2018-11-25T11:39:59.461Z,71.85
2018-11-25T11:42:29.744Z,71.60
2018-11-25T11:47:41.901Z,71.32
2018-11-25T11:50:34.648Z,71.45
2018-11-25T11:53:04.905Z,71.51
2018-11-25T11:55:35.133Z,71.50
2018-11-25T11:58:05.380Z,71.32
2018-11-25T12:00:54.527Z,71.06
2018-11-25T12:06:19.801Z,71.15
2018-11-25T12:09:15.455Z,71.05
2018-11-25T12:11:45.699Z,71.08
2018-11-25T12:14:15.937Z,71.10
2018-11-25T12:16:46.155Z,70.79
2018-11-25T12:19:16.405Z,71.43
2018-11-25T12:21:46.627Z,71.40
2018-11-25T12:24:16.882Z,71.38
2018-11-25T12:26:47.113Z,71.58
2018-11-25T12:29:17.363Z,72.08
2018-11-25T12:31:47.574Z,71.98
2018-11-25T12:37:00.144Z,71.57
2018-11-25T12:39:30.395Z,71.28
2018-11-25T12:42:12.588Z,70.99
2018-11-25T12:47:37.919Z,70.52
2018-11-25T12:50:10.104Z,70.57
2018-11-25T12:52:59.667Z,70.59
2018-11-25T12:55:29.740Z,70.63
2018-11-25T12:57:59.994Z,70.67
2018-11-25T13:00:49.639Z,70.65
2018-11-25T13:03:19.868Z,70.64
2018-11-25T13:08:32.721Z,70.64
2018-11-25T13:14:04.637Z,70.73
2018-11-25T13:16:34.874Z,70.72
2018-11-25T13:19:05.076Z,70.86
2018-11-25T13:24:30.012Z,70.90
2018-11-25T13:29:55.894Z,70.92
2018-11-25T13:35:21.680Z,70.92
2018-11-25T13:40:47.515Z,70.62
2018-11-25T13:43:17.772Z,70.79
2018-11-25T13:45:48.028Z,70.82
2018-11-25T13:48:18.279Z,70.87
2018-11-25T13:50:48.491Z,70.86
2018-11-25T13:56:02.348Z,70.86
2018-11-25T13:58:32.577Z,70.93
2018-11-25T14:03:58.411Z,71.03
2018-11-25T14:06:28.608Z,71.06
2018-11-25T14:08:59.026Z,71.13
2018-11-25T14:11:29.245Z,71.18
2018-11-25T14:14:05.381Z,71.32
2018-11-25T14:16:35.607Z,71.25
2018-11-25T14:19:06.120Z,71.29
2018-11-25T14:21:36.335Z,71.36
2018-11-25T14:24:06.588Z,71.27
2018-11-25T14:26:59.691Z,71.29
2018-11-25T14:29:30.305Z,71.37
2018-11-25T14:32:00.520Z,71.36
2018-11-25T14:34:30.763Z,71.49
2018-11-25T14:37:00.972Z,71.52
2018-11-25T14:42:26.444Z,71.63
2018-11-25T14:44:56.697Z,71.73
2018-11-25T14:47:26.903Z,71.84
2018-11-25T14:49:57.233Z,71.97
2018-11-25T14:52:46.364Z,71.90
2018-11-25T14:55:17.109Z,71.89
2018-11-25T14:57:47.327Z,72.14
2018-11-25T15:00:40.654Z,72.09
2018-11-25T15:03:10.876Z,72.15
2018-11-25T15:05:46.118Z,72.23
2018-11-25T15:08:20.830Z,72.13
2018-11-25T15:13:46.677Z,72.19
2018-11-25T15:19:05.041Z,72.18
2018-11-25T15:21:35.331Z,72.34
2018-11-25T15:24:05.577Z,72.51
2018-11-25T15:26:35.822Z,72.70
2018-11-25T15:29:06.305Z,72.90
2018-11-25T15:31:36.601Z,73.11
2018-11-25T15:34:06.984Z,74.06
2018-11-25T15:39:32.332Z,74.46
2018-11-25T15:42:02.591Z,73.98
2018-11-25T15:44:32.818Z,73.83
2018-11-25T15:47:09.871Z,73.94
2018-11-25T15:49:40.117Z,73.84
2018-11-25T15:52:10.404Z,73.83
2018-11-25T15:54:40.637Z,74.24
2018-11-25T15:57:10.884Z,74.56
2018-11-25T15:59:41.094Z,73.86
2018-11-25T16:02:11.328Z,73.69
2018-11-25T16:04:41.568Z,73.62
2018-11-25T16:07:12.427Z,73.51
2018-11-25T16:09:42.342Z,74.12
2018-11-25T16:14:55.084Z,73.88
2018-11-25T16:17:25.338Z,73.92
2018-11-25T16:20:18.234Z,73.53
2018-11-25T16:22:49.714Z,73.36
2018-11-25T16:25:39.879Z,73.44
2018-11-25T16:28:48.015Z,73.33
2018-11-25T16:31:18.255Z,73.15
2018-11-25T16:33:48.510Z,73.24
2018-11-25T16:36:18.728Z,73.44
2018-11-25T16:38:48.990Z,73.30
2018-11-25T16:41:19.200Z,73.11
2018-11-25T16:44:08.369Z,72.87
2018-11-25T16:46:38.572Z,72.75
2018-11-25T16:49:27.737Z,72.84
2018-11-25T16:51:57.968Z,72.84
2018-11-25T16:54:47.196Z,73.33
2018-11-25T17:02:54.136Z,72.60
2018-11-25T17:05:44.228Z,72.63
2018-11-25T17:08:34.328Z,72.72
2018-11-25T17:11:04.599Z,72.76
2018-11-25T17:13:34.801Z,72.82
2018-11-25T17:19:00.083Z,72.98
2018-11-25T17:21:30.341Z,73.27
2018-11-25T17:24:00.563Z,73.28
2018-11-25T17:26:30.805Z,73.31
2018-11-25T17:29:08.396Z,73.30
2018-11-25T17:31:38.636Z,73.28
2018-11-25T17:34:08.866Z,73.28
2018-11-25T17:36:39.102Z,73.33
2018-11-25T17:39:10.065Z,73.48
2018-11-25T17:41:40.300Z,73.53
2018-11-25T17:44:29.424Z,73.49
2018-11-25T17:47:18.323Z,73.59
2018-11-25T17:49:48.557Z,73.45
2018-11-25T17:55:33.303Z,73.45
2018-11-25T17:58:03.549Z,73.46
2018-11-25T18:00:57.334Z,73.46
2018-11-25T18:03:31.856Z,73.53
2018-11-25T18:06:02.087Z,73.66
2018-11-25T18:08:32.376Z,73.71
2018-11-25T18:11:02.586Z,73.81
2018-11-25T18:13:34.778Z,74.61
2018-11-25T18:16:06.518Z,75.20
2018-11-25T18:19:14.658Z,74.50
2018-11-25T18:21:44.868Z,74.10
2018-11-25T18:24:15.132Z,73.87
2018-11-25T18:26:45.357Z,74.54
2018-11-25T18:29:15.613Z,74.15
2018-11-25T18:32:04.777Z,74.31
2018-11-25T18:34:35.053Z,74.40
2018-11-25T18:37:05.298Z,73.91
2018-11-25T18:42:30.760Z,73.85
2018-11-25T18:45:01.025Z,73.45
2018-11-25T18:47:31.279Z,73.19
2018-11-25T18:50:01.916Z,73.19
2018-11-25T18:52:32.123Z,73.25
2018-11-25T18:55:20.391Z,73.35
2018-11-25T18:58:02.127Z,73.36
2018-11-25T19:00:53.014Z,73.25
2018-11-25T19:03:23.244Z,73.31
2018-11-25T19:05:53.497Z,73.47
2018-11-25T19:08:23.703Z,73.49
2018-11-25T19:11:05.072Z,73.47
2018-11-25T19:13:54.636Z,73.49
2018-11-25T19:19:20.315Z,73.72
2018-11-25T19:22:02.131Z,73.72
2018-11-25T19:24:32.387Z,73.74
2018-11-25T19:27:09.032Z,73.50
2018-11-25T19:29:39.289Z,73.56
2018-11-25T19:32:09.604Z,73.55
2018-11-25T19:34:39.833Z,73.60
2018-11-25T19:37:10.148Z,73.64
2018-11-25T19:39:40.391Z,73.65
2018-11-25T19:42:10.772Z,73.64
2018-11-25T19:44:41.036Z,73.70
2018-11-25T19:47:11.285Z,73.70
2018-11-25T19:49:41.526Z,73.62
2018-11-25T19:52:11.789Z,73.77
2018-11-25T19:54:42.063Z,73.68
2018-11-25T19:57:18.412Z,73.71
2018-11-25T19:59:48.745Z,73.77
2018-11-25T20:02:19.010Z,73.84
2018-11-25T20:04:49.236Z,73.82
2018-11-25T20:07:19.510Z,73.78
2018-11-25T20:09:49.753Z,73.77
2018-11-25T20:12:38.728Z,73.72
2018-11-25T20:15:10.207Z,73.71
2018-11-25T20:20:26.043Z,73.76
2018-11-25T20:22:56.684Z,73.85
2018-11-25T20:25:45.900Z,73.89
2018-11-25T20:28:22.975Z,73.88
2018-11-25T20:30:53.231Z,73.98
2018-11-25T20:33:42.449Z,73.85
2018-11-25T20:36:12.752Z,73.92
2018-11-25T20:39:20.589Z,73.79
2018-11-25T20:41:50.948Z,73.78
2018-11-25T20:44:21.190Z,73.82
2018-11-25T20:47:10.120Z,73.81
2018-11-25T20:49:40.505Z,73.98
2018-11-25T20:52:48.375Z,73.98
2018-11-25T20:55:18.663Z,74.09
2018-11-25T20:57:48.954Z,74.20
2018-11-25T21:00:26.582Z,74.29
2018-11-25T21:02:56.825Z,74.20
2018-11-25T21:05:45.847Z,73.99
2018-11-25T21:08:16.204Z,74.04
2018-11-25T21:10:46.615Z,74.14
2018-11-25T21:13:17.066Z,74.32
2018-11-25T21:15:47.307Z,74.44
2018-11-25T21:18:17.533Z,74.63
2018-11-25T21:20:51.269Z,74.64
2018-11-25T21:23:18.040Z,74.61
2018-11-25T21:25:48.339Z,74.77
2018-11-25T21:28:18.880Z,74.65
2018-11-25T21:30:49.120Z,75.18
2018-11-25T21:33:19.357Z,74.89
2018-11-25T21:38:44.909Z,74.76
2018-11-25T21:41:15.146Z,74.90
2018-11-25T21:43:45.458Z,74.86
2018-11-25T21:46:15.747Z,75.00
2018-11-25T21:48:45.985Z,75.05
2018-11-25T21:51:16.260Z,75.13
2018-11-25T21:53:46.477Z,75.23
2018-11-25T21:56:16.755Z,75.15
2018-11-25T21:58:46.966Z,75.24
2018-11-25T22:01:23.574Z,75.38
2018-11-25T22:04:05.049Z,75.30
2018-11-25T22:06:35.294Z,75.13
2018-11-25T22:09:07.779Z,75.06
2018-11-25T22:11:38.231Z,74.17
2018-11-25T22:14:08.449Z,74.46
2018-11-25T22:19:33.369Z,74.35
2018-11-25T22:24:59.265Z,75.08
2018-11-25T22:33:07.571Z,75.03
2018-11-25T22:35:37.936Z,75.02
2018-11-25T22:38:08.525Z,75.09
2018-11-25T22:40:38.808Z,74.83
2018-11-25T22:43:28.037Z,74.61
2018-11-25T22:45:58.263Z,74.69
2018-11-25T22:51:10.911Z,74.71
2018-11-25T22:53:41.695Z,74.99
2018-11-25T22:56:30.829Z,75.12
2018-11-25T22:59:19.739Z,75.08
2018-11-25T23:01:49.996Z,75.12
2018-11-25T23:04:58.171Z,75.32
2018-11-25T23:07:40.344Z,75.40
2018-11-25T23:10:10.575Z,75.54
2018-11-25T23:12:40.785Z,75.44
2018-11-25T23:15:11.049Z,75.46
2018-11-25T23:17:41.275Z,75.36
2018-11-25T23:20:30.436Z,75.39
2018-11-25T23:23:00.998Z,75.41
2018-11-25T23:25:31.603Z,75.42
2018-11-25T23:28:01.836Z,75.35
2018-11-25T23:30:32.068Z,74.95
2018-11-25T23:33:20.937Z,74.98
2018-11-25T23:35:51.185Z,75.02
2018-11-25T23:38:40.321Z,74.88
2018-11-25T23:44:05.972Z,75.09
2018-11-25T23:46:36.243Z,75.02
2018-11-25T23:49:06.488Z,75.00
2018-11-25T23:54:31.549Z,74.90
2018-11-25T23:59:57.655Z,75.07
